Time;durP1;ratioP1;P1;durP2;ratioP2;P2;SDS_P1;SDS_P2;PMS_P1;PMS_P2;Temp;Humidity;BMP_temperature;BMP_pressure;BME280_temperature;BME280_humidity;BME280_pressure;Samples;Min_cycle;Max_cycle;Signal;HPM_P1;HPM_P2
2024/01/20 00:02:21;;;;;;;22.38;8.88;;;-2.00;99.90;;;;;;5050192;28;20045;-55
2024/01/20 00:04:47;;;;;;;22.38;9.52;;;-2.00;99.90;;;;;;5050537;28;20032;-50
2024/01/20 00:07:13;;;;;;;21.63;9.07;;;-1.90;99.90;;;;;;5050397;28;20092;-55
2024/01/20 00:09:39;;;;;;;15.00;7.93;;;-1.90;99.90;;;;;;5050592;28;20037;-54
2024/01/20 00:12:05;;;;;;;24.80;10.65;;;-1.90;99.90;;;;;;5050303;28;20025;-53
2024/01/20 00:14:30;;;;;;;23.85;10.02;;;-1.90;99.90;;;;;;5050373;28;20756;-55
2024/01/20 00:16:56;;;;;;;19.48;8.95;;;-1.90;99.90;;;;;;5050350;28;20107;-51
2024/01/20 00:19:21;;;;;;;17.10;8.63;;;-1.90;99.90;;;;;;5050288;28;20150;-54
2024/01/20 00:21:47;;;;;;;22.45;8.65;;;-1.90;99.90;;;;;;5050352;28;20043;-52
2024/01/20 00:24:13;;;;;;;17.40;7.97;;;-1.80;99.90;;;;;;5050000;28;20142;-50
2024/01/20 00:26:38;;;;;;;22.83;9.20;;;-1.80;99.90;;;;;;5050075;28;20017;-52
2024/01/20 00:29:04;;;;;;;17.42;8.95;;;-1.80;99.90;;;;;;5050485;28;20040;-52
2024/01/20 00:31:30;;;;;;;19.80;9.40;;;-1.60;99.90;;;;;;5050388;28;20029;-55
2024/01/20 00:33:56;;;;;;;18.00;7.65;;;-1.50;99.90;;;;;;5050525;28;20499;-51
2024/01/20 00:36:21;;;;;;;17.95;8.10;;;-1.50;99.90;;;;;;5049772;28;20446;-55
2024/01/20 00:38:47;;;;;;;18.58;7.85;;;-1.60;99.90;;;;;;5050239;28;20040;-49
2024/01/20 00:41:13;;;;;;;16.02;8.25;;;-1.70;99.90;;;;;;5049912;28;20025;-54
2024/01/20 00:43:38;;;;;;;15.25;7.45;;;-1.70;99.90;;;;;;5050467;28;20028;-54
2024/01/20 00:46:04;;;;;;;14.68;7.25;;;-1.80;99.90;;;;;;5050188;28;20025;-51
2024/01/20 00:48:30;;;;;;;14.30;7.45;;;-1.80;99.90;;;;;;5050165;28;20021;-52
2024/01/20 00:50:55;;;;;;;14.77;6.72;;;-1.90;99.90;;;;;;5050022;28;20032;-52
2024/01/20 00:53:21;;;;;;;15.93;6.93;;;-1.90;99.90;;;;;;5049952;28;20017;-50
2024/01/20 00:55:46;;;;;;;20.20;7.40;;;-1.90;99.90;;;;;;5050001;28;20025;-52
2024/01/20 00:58:12;;;;;;;12.07;5.78;;;-1.90;99.90;;;;;;5050027;28;20571;-54
2024/01/20 01:00:38;;;;;;;12.43;6.50;;;-1.90;99.90;;;;;;5050118;28;20017;-55
2024/01/20 01:03:04;;;;;;;10.15;5.13;;;-1.90;99.90;;;;;;5049742;28;20063;-51
2024/01/20 01:05:30;;;;;;;9.93;4.88;;;-1.90;99.90;;;;;;5049829;28;20025;-52
2024/01/20 01:07:58;;;;;;;9.55;4.25;;;-1.80;99.90;;;;;;5050426;28;20029;-51
2024/01/20 01:10:24;;;;;;;11.10;4.95;;;-1.70;99.90;;;;;;5050276;28;20055;-49
2024/01/20 01:12:49;;;;;;;8.73;3.70;;;-1.50;99.90;;;;;;5050284;28;20101;-52
2024/01/20 01:15:15;;;;;;;10.85;3.65;;;-1.40;99.90;;;;;;5049163;28;20602;-50
2024/01/20 01:17:41;;;;;;;13.20;4.05;;;-1.30;99.90;;;;;;5050031;28;20578;-51
2024/01/20 01:20:08;;;;;;;8.10;3.63;;;-1.10;99.90;;;;;;5050008;28;20028;-51
2024/01/20 01:22:34;;;;;;;6.38;3.38;;;-1.10;99.90;;;;;;5048721;28;20029;-50
2024/01/20 01:25:00;;;;;;;8.50;3.78;;;-1.00;99.90;;;;;;5050916;28;20634;-48
2024/01/20 01:27:25;;;;;;;5.22;2.83;;;-0.90;99.90;;;;;;5050628;28;20040;-49
2024/01/20 01:29:51;;;;;;;10.38;3.40;;;-0.80;99.90;;;;;;5050113;28;20456;-52
2024/01/20 01:32:18;;;;;;;8.75;3.33;;;-0.80;99.90;;;;;;5050023;28;20037;-49
2024/01/20 01:34:43;;;;;;;8.20;3.20;;;-0.80;99.90;;;;;;5049629;28;20024;-53
2024/01/20 01:37:09;;;;;;;11.95;2.95;;;-0.80;99.90;;;;;;5049560;28;20528;-50
2024/01/20 01:39:34;;;;;;;7.35;3.03;;;-0.80;99.90;;;;;;5049381;28;20029;-49
2024/01/20 01:42:00;;;;;;;6.78;2.35;;;-0.80;99.90;;;;;;5049568;28;20103;-54
2024/01/20 01:44:26;;;;;;;6.38;3.33;;;-0.90;99.90;;;;;;5049437;28;20021;-54
2024/01/20 01:46:52;;;;;;;5.13;3.13;;;-0.90;99.90;;;;;;5049816;28;20064;-52
2024/01/20 01:49:18;;;;;;;8.55;3.08;;;-0.90;99.90;;;;;;5049401;28;20055;-53
2024/01/20 01:51:43;;;;;;;8.77;3.75;;;-0.90;99.90;;;;;;5049340;28;20033;-51
2024/01/20 01:54:12;;;;;;;5.13;2.60;;;-1.00;99.90;;;;;;5049527;28;20055;-52
2024/01/20 01:56:39;;;;;;;6.05;2.90;;;-1.10;99.90;;;;;;5049301;28;20029;-52
2024/01/20 01:59:05;;;;;;;6.15;2.97;;;-1.10;99.90;;;;;;5048034;28;20025;-49
2024/01/20 02:01:30;;;;;;;5.78;2.88;;;-1.20;99.90;;;;;;5049249;28;20433;-48
2024/01/20 02:03:57;;;;;;;5.97;2.95;;;-1.20;99.90;;;;;;5049274;28;20032;-48
2024/01/20 02:06:23;;;;;;;4.57;2.30;;;-1.20;99.90;;;;;;5049609;28;20108;-49
2024/01/20 02:08:49;;;;;;;6.65;2.70;;;-1.20;99.90;;;;;;5049260;28;20025;-52
2024/01/20 02:11:15;;;;;;;7.88;2.88;;;-1.30;99.90;;;;;;5049261;28;20021;-48
2024/01/20 02:13:41;;;;;;;4.32;2.60;;;-1.20;99.90;;;;;;5049275;28;20120;-55
2024/01/20 02:16:06;;;;;;;6.40;2.50;;;-1.30;99.90;;;;;;5049106;28;20434;-48
2024/01/20 02:18:32;;;;;;;5.03;2.60;;;-1.30;99.90;;;;;;5049137;28;20040;-51
2024/01/20 02:20:58;;;;;;;4.13;1.90;;;-1.30;99.90;;;;;;5049178;28;20093;-53
2024/01/20 02:23:24;;;;;;;4.38;1.75;;;-1.30;99.90;;;;;;5049336;28;20112;-51
2024/01/20 02:25:49;;;;;;;5.53;2.20;;;-1.30;99.90;;;;;;5048903;28;20102;-48
2024/01/20 02:28:15;;;;;;;7.75;2.42;;;-1.30;99.90;;;;;;5049263;28;20497;-51
2024/01/20 02:30:42;;;;;;;3.85;2.00;;;-1.30;99.90;;;;;;5049139;28;20476;-48
2024/01/20 02:33:08;;;;;;;7.15;2.15;;;-1.30;99.90;;;;;;5049949;28;20533;-56
2024/01/20 02:35:34;;;;;;;2.78;1.70;;;-1.40;99.90;;;;;;5052825;28;20033;-52
2024/01/20 02:38:01;;;;;;;4.90;2.05;;;-1.40;99.90;;;;;;5052338;28;20060;-51
2024/01/20 02:40:27;;;;;;;4.13;2.00;;;-1.50;99.90;;;;;;5052546;28;20032;-49
2024/01/20 02:42:53;;;;;;;5.55;2.05;;;-1.40;99.90;;;;;;5052090;28;20040;-54
2024/01/20 02:45:18;;;;;;;4.00;1.90;;;-1.40;99.90;;;;;;5052384;28;20017;-49
2024/01/20 02:47:44;;;;;;;3.55;1.83;;;-1.40;99.90;;;;;;5052349;28;20033;-48
2024/01/20 02:50:10;;;;;;;3.95;1.40;;;-1.30;99.90;;;;;;5052225;28;20079;-53
2024/01/20 02:52:36;;;;;;;4.22;1.48;;;-1.30;99.90;;;;;;5052259;28;20029;-49
2024/01/20 02:55:02;;;;;;;2.08;1.30;;;-1.20;99.90;;;;;;5052235;28;20104;-53
2024/01/20 02:57:27;;;;;;;2.92;1.55;;;-1.10;99.90;;;;;;5051862;28;20043;-51
2024/01/20 02:59:53;;;;;;;4.13;1.25;;;-1.20;99.90;;;;;;5052241;28;20061;-55
2024/01/20 03:02:19;;;;;;;3.80;1.52;;;-1.10;99.90;;;;;;5051824;28;20439;-56
2024/01/20 03:04:44;;;;;;;1.95;1.17;;;-1.10;99.90;;;;;;5043629;28;20036;-55
2024/01/20 03:07:10;;;;;;;2.13;0.98;;;-1.10;99.90;;;;;;5051746;28;20033;-51
2024/01/20 03:09:36;;;;;;;7.88;1.58;;;-1.00;99.90;;;;;;5051717;28;20476;-50
2024/01/20 03:12:01;;;;;;;7.45;1.50;;;-1.00;99.90;;;;;;5037892;28;20037;-54
2024/01/20 03:14:27;;;;;;;2.90;1.27;;;-0.90;99.90;;;;;;5037856;28;20063;-51
2024/01/20 03:16:53;;;;;;;2.40;1.15;;;-0.90;99.90;;;;;;5051609;28;20480;-56
2024/01/20 03:19:19;;;;;;;3.03;1.15;;;-0.90;99.90;;;;;;5051654;28;20029;-55
2024/01/20 03:21:45;;;;;;;2.33;1.17;;;-1.00;99.90;;;;;;5051304;28;20324;-52
2024/01/20 03:24:10;;;;;;;3.17;1.00;;;-1.00;99.90;;;;;;5051697;28;20017;-51
2024/01/20 03:26:36;;;;;;;1.45;1.00;;;-1.00;99.90;;;;;;5050012;28;20043;-53
2024/01/20 03:29:02;;;;;;;3.83;0.90;;;-0.90;99.90;;;;;;5051631;28;20464;-54
2024/01/20 03:31:28;;;;;;;1.98;1.02;;;-0.80;99.90;;;;;;5051485;28;20043;-51
2024/01/20 03:33:54;;;;;;;2.63;1.23;;;-0.80;99.90;;;;;;5051672;28;20051;-55
2024/01/20 03:36:19;;;;;;;3.55;1.33;;;-0.90;99.90;;;;;;5051693;28;20033;-49
2024/01/20 03:38:45;;;;;;;1.80;1.30;;;-0.90;99.90;;;;;;5051356;28;20037;-54
2024/01/20 03:41:11;;;;;;;1.23;0.98;;;-0.80;99.90;;;;;;5051307;28;20029;-50
2024/01/20 03:43:36;;;;;;;4.50;1.33;;;-0.80;99.90;;;;;;5051375;28;20025;-52
2024/01/20 03:46:02;;;;;;;2.38;1.00;;;-0.70;99.90;;;;;;5051252;28;20057;-48
2024/01/20 03:48:28;;;;;;;2.45;1.20;;;-0.50;99.90;;;;;;5051315;28;20380;-53
2024/01/20 03:50:55;;;;;;;4.72;1.17;;;-0.30;99.90;;;;;;5051266;28;20035;-51
2024/01/20 03:53:20;;;;;;;4.35;1.73;;;-0.30;99.90;;;;;;5049932;28;20028;-51
2024/01/20 03:55:46;;;;;;;1.75;0.88;;;-0.30;99.90;;;;;;5050861;28;20337;-50
2024/01/20 03:58:12;;;;;;;1.52;0.90;;;-0.20;99.90;;;;;;5051002;28;20116;-51
2024/01/20 04:00:37;;;;;;;1.50;0.85;;;-0.30;99.90;;;;;;5050612;28;20537;-51
2024/01/20 04:03:03;;;;;;;2.78;0.70;;;-0.20;99.90;;;;;;5051009;28;20068;-53
2024/01/20 04:05:29;;;;;;;1.70;0.70;;;-0.30;99.90;;;;;;5050528;28;20017;-52
2024/01/20 04:07:55;;;;;;;3.20;0.98;;;-0.20;99.90;;;;;;5050599;28;20040;-53
2024/01/20 04:10:20;;;;;;;2.83;1.20;;;-0.10;99.90;;;;;;5050841;28;20056;-53
2024/01/20 04:12:46;;;;;;;7.38;1.30;;;0.10;99.90;;;;;;5050380;28;20112;-50
2024/01/20 04:15:12;;;;;;;1.25;1.00;;;0.20;99.90;;;;;;5050695;28;20024;-52
2024/01/20 04:17:37;;;;;;;1.67;0.65;;;0.30;99.90;;;;;;5050377;28;20392;-50
2024/01/20 04:20:04;;;;;;;2.83;1.25;;;0.30;99.90;;;;;;5050450;28;20021;-55
2024/01/20 04:22:30;;;;;;;2.42;1.00;;;0.30;99.90;;;;;;5050764;28;20029;-50
2024/01/20 04:24:55;;;;;;;0.93;0.70;;;0.40;99.90;;;;;;5050174;28;20032;-52
2024/01/20 04:27:21;;;;;;;3.30;1.05;;;0.50;99.90;;;;;;5050369;28;20109;-51
2024/01/20 04:29:47;;;;;;;1.67;0.70;;;0.40;99.90;;;;;;5050323;28;20053;-52
2024/01/20 04:32:13;;;;;;;5.57;1.05;;;0.50;99.90;;;;;;5050425;28;20357;-49
2024/01/20 04:34:39;;;;;;;3.70;1.10;;;0.50;99.90;;;;;;5050484;28;20096;-53
2024/01/20 04:37:06;;;;;;;8.48;1.70;;;0.60;99.90;;;;;;5050040;28;20028;-50
2024/01/20 04:39:31;;;;;;;2.00;1.45;;;0.60;99.90;;;;;;5050423;28;20098;-52
2024/01/20 04:41:57;;;;;;;4.70;0.88;;;0.50;99.90;;;;;;5050210;28;20017;-50
2024/01/20 04:44:23;;;;;;;1.83;1.00;;;0.50;99.90;;;;;;5050144;28;20406;-51
2024/01/20 04:46:48;;;;;;;5.60;1.48;;;0.60;99.90;;;;;;5050349;28;20079;-52
2024/01/20 04:49:14;;;;;;;6.28;1.08;;;0.70;99.90;;;;;;5050309;28;20040;-54
2024/01/20 04:51:40;;;;;;;2.58;1.13;;;0.80;99.90;;;;;;5050260;28;20388;-53
2024/01/20 04:54:05;;;;;;;2.60;1.52;;;1.00;99.90;;;;;;5050177;28;20074;-51
2024/01/20 04:56:31;;;;;;;5.93;1.50;;;1.20;99.90;;;;;;5049487;28;20036;-51
2024/01/20 04:58:57;;;;;;;5.60;1.20;;;1.20;99.90;;;;;;5049975;28;20029;-52
2024/01/20 05:01:22;;;;;;;3.72;1.35;;;1.20;99.90;;;;;;5049962;28;20040;-51
2024/01/20 05:03:48;;;;;;;4.75;1.40;;;1.10;99.90;;;;;;5050323;28;20086;-51
2024/01/20 05:06:14;;;;;;;2.53;1.15;;;1.10;99.90;;;;;;5050301;28;20489;-51
2024/01/20 05:08:39;;;;;;;9.52;1.50;;;1.00;99.90;;;;;;5048911;28;20508;-53
2024/01/20 05:11:06;;;;;;;4.15;1.90;;;1.00;99.90;;;;;;5049856;28;20365;-53
2024/01/20 05:13:32;;;;;;;4.07;1.50;;;1.10;99.90;;;;;;5048505;28;20024;-53
2024/01/20 05:15:57;;;;;;;5.03;1.63;;;1.00;99.90;;;;;;5050241;28;20514;-49
2024/01/20 05:18:23;;;;;;;6.03;1.60;;;1.00;99.90;;;;;;5049730;28;20037;-49
2024/01/20 05:20:49;;;;;;;7.70;1.35;;;1.00;99.90;;;;;;5050074;28;20100;-56
2024/01/20 05:23:14;;;;;;;6.28;1.40;;;1.00;99.90;;;;;;5048558;28;20108;-51
2024/01/20 05:25:40;;;;;;;2.42;1.45;;;1.00;99.90;;;;;;5050003;28;20422;-51
2024/01/20 05:28:06;;;;;;;2.40;1.02;;;1.10;99.90;;;;;;5049681;28;20033;-52
2024/01/20 05:30:31;;;;;;;6.38;1.27;;;1.10;99.90;;;;;;5050008;28;20033;-48
2024/01/20 05:32:57;;;;;;;3.05;1.25;;;1.10;99.90;;;;;;5050232;28;20025;-48
2024/01/20 05:35:23;;;;;;;2.28;1.15;;;1.00;99.90;;;;;;5050091;28;20491;-51
2024/01/20 05:37:48;;;;;;;6.28;1.13;;;1.00;99.90;;;;;;5049862;28;20090;-51
2024/01/20 05:40:14;;;;;;;2.78;1.25;;;1.00;99.90;;;;;;5049747;28;20151;-55
2024/01/20 05:42:40;;;;;;;3.13;1.02;;;1.00;99.90;;;;;;5049666;28;20103;-51
2024/01/20 05:45:09;;;;;;;1.80;0.85;;;1.00;99.90;;;;;;5047663;28;20547;-53
2024/01/20 05:47:36;;;;;;;3.30;1.23;;;1.00;99.90;;;;;;5021843;28;20365;-49
2024/01/20 05:50:03;;;;;;;4.60;1.30;;;0.90;99.90;;;;;;5027331;28;20272;-54
2024/01/20 05:52:29;;;;;;;7.05;1.00;;;0.90;99.90;;;;;;5019462;28;20083;-48
2024/01/20 05:54:54;;;;;;;1.33;0.80;;;0.90;99.90;;;;;;5029392;28;20770;-50
2024/01/20 05:57:20;;;;;;;2.00;1.00;;;0.90;99.90;;;;;;5029100;28;20047;-55
2024/01/20 05:59:46;;;;;;;1.92;0.90;;;0.90;99.90;;;;;;5029448;28;20381;-49
2024/01/20 06:02:11;;;;;;;4.07;1.20;;;0.90;99.90;;;;;;5029210;28;20118;-56
2024/01/20 06:04:37;;;;;;;2.75;1.10;;;0.80;99.90;;;;;;5029420;28;20034;-57
2024/01/20 06:07:03;;;;;;;1.70;0.70;;;0.90;99.90;;;;;;5030533;28;20100;-48
2024/01/20 06:09:29;;;;;;;3.15;1.23;;;1.00;99.90;;;;;;5033060;28;20045;-47
2024/01/20 06:11:54;;;;;;;3.67;1.20;;;1.10;99.90;;;;;;5032888;28;20045;-56
2024/01/20 06:14:20;;;;;;;3.35;1.23;;;1.20;99.90;;;;;;5032364;28;20025;-50
2024/01/20 06:16:45;;;;;;;6.13;0.88;;;1.30;99.90;;;;;;5028784;28;20428;-49
2024/01/20 06:19:11;;;;;;;8.05;1.35;;;1.40;99.90;;;;;;5033352;28;20045;-48
2024/01/20 06:21:37;;;;;;;4.80;1.25;;;1.50;99.90;;;;;;5033116;28;20099;-48
2024/01/20 06:24:02;;;;;;;1.13;0.82;;;1.50;99.90;;;;;;5032903;28;20037;-50
2024/01/20 06:26:28;;;;;;;4.88;1.17;;;1.50;99.90;;;;;;5032369;28;20026;-50
2024/01/20 06:28:54;;;;;;;6.65;1.52;;;1.70;99.90;;;;;;5033004;28;20101;-53
2024/01/20 06:31:23;;;;;;;3.03;1.13;;;1.80;99.90;;;;;;5032993;28;20380;-54
2024/01/20 06:33:50;;;;;;;3.00;1.15;;;1.80;99.90;;;;;;5032748;28;20052;-55
2024/01/20 06:36:15;;;;;;;4.15;0.77;;;1.80;99.90;;;;;;5032652;28;20033;-48
2024/01/20 06:38:41;;;;;;;6.43;1.35;;;1.80;99.90;;;;;;5031058;28;20228;-53
2024/01/20 06:41:07;;;;;;;1.85;0.80;;;1.80;99.90;;;;;;5032224;28;20461;-50
2024/01/20 06:43:32;;;;;;;1.85;0.90;;;1.80;99.90;;;;;;5031208;28;20037;-53
2024/01/20 06:46:00;;;;;;;2.15;1.00;;;1.90;99.90;;;;;;5032719;28;20021;-53
2024/01/20 06:48:26;;;;;;;5.38;1.30;;;1.90;99.90;;;;;;5032386;28;20025;-48
2024/01/20 06:50:52;;;;;;;5.40;1.23;;;1.90;99.90;;;;;;5032320;28;20548;-49
2024/01/20 06:53:18;;;;;;;0.88;0.70;;;1.90;99.90;;;;;;5031921;28;20029;-53
2024/01/20 06:55:44;;;;;;;4.38;1.27;;;1.90;99.90;;;;;;5031564;28;20044;-48
2024/01/20 06:58:09;;;;;;;4.07;1.13;;;1.90;99.90;;;;;;5032422;28;20484;-47
2024/01/20 07:00:35;;;;;;;3.72;1.40;;;2.00;99.90;;;;;;5031779;28;20061;-49
2024/01/20 07:03:02;;;;;;;2.05;1.00;;;1.90;99.90;;;;;;5032024;28;20056;-49
2024/01/20 07:05:28;;;;;;;1.58;0.95;;;2.10;99.90;;;;;;5031714;28;20059;-53
2024/01/20 07:07:54;;;;;;;5.78;1.13;;;2.10;99.90;;;;;;5031907;28;20017;-51
2024/01/20 07:10:19;;;;;;;1.90;1.00;;;2.10;99.90;;;;;;5031462;28;20087;-49
2024/01/20 07:12:45;;;;;;;5.78;1.20;;;2.10;99.90;;;;;;5032267;28;20084;-52
2024/01/20 07:15:11;;;;;;;2.55;1.23;;;2.10;99.90;;;;;;5031283;28;20029;-50
2024/01/20 07:17:37;;;;;;;2.80;1.35;;;2.20;99.90;;;;;;5031770;28;20057;-49
2024/01/20 07:20:03;;;;;;;5.60;1.95;;;2.20;99.90;;;;;;5029926;28;20431;-47
2024/01/20 07:22:28;;;;;;;8.52;2.08;;;2.30;99.90;;;;;;5031419;28;20021;-48
2024/01/20 07:24:54;;;;;;;3.63;1.30;;;2.30;99.90;;;;;;5031476;28;20136;-50
2024/01/20 07:27:20;;;;;;;1.60;1.13;;;2.30;99.90;;;;;;5030378;28;20374;-47
2024/01/20 07:29:46;;;;;;;3.22;1.17;;;2.40;99.90;;;;;;5031497;28;20503;-47
2024/01/20 07:32:11;;;;;;;6.13;1.20;;;2.40;99.90;;;;;;5031502;28;20128;-56
2024/01/20 07:34:37;;;;;;;3.72;1.10;;;2.30;99.90;;;;;;5030929;28;20017;-50
2024/01/20 07:37:03;;;;;;;4.22;1.15;;;2.40;99.90;;;;;;5030907;28;20144;-48
2024/01/20 07:39:29;;;;;;;6.10;1.35;;;2.40;99.90;;;;;;5031362;28;20025;-52
2024/01/20 07:41:54;;;;;;;2.60;0.95;;;2.50;99.90;;;;;;5029808;28;20025;-50
2024/01/20 07:44:20;;;;;;;8.43;1.48;;;2.60;99.90;;;;;;5029792;28;20444;-53
2024/01/20 07:46:46;;;;;;;2.95;1.17;;;2.60;99.90;;;;;;5029740;28;20457;-51
2024/01/20 07:49:11;;;;;;;4.32;1.10;;;2.70;99.90;;;;;;5028966;28;20518;-49
2024/01/20 07:51:37;;;;;;;6.38;1.13;;;2.70;99.90;;;;;;5029487;28;20035;-49
2024/01/20 07:54:03;;;;;;;2.20;0.82;;;2.80;99.90;;;;;;5029266;28;20073;-49
2024/01/20 07:56:29;;;;;;;6.72;1.00;;;2.80;99.90;;;;;;5029379;28;20033;-49
2024/01/20 07:58:54;;;;;;;2.55;1.00;;;2.90;99.90;;;;;;5020817;28;20030;-48
2024/01/20 08:01:20;;;;;;;3.80;0.68;;;3.00;99.90;;;;;;5030892;28;20017;-47
2024/01/20 08:03:46;;;;;;;4.30;0.93;;;3.10;99.90;;;;;;5030522;28;20033;-48
2024/01/20 08:06:11;;;;;;;2.90;0.85;;;3.20;99.90;;;;;;5030228;28;20087;-47
2024/01/20 08:08:37;;;;;;;2.25;0.82;;;3.30;99.90;;;;;;5030617;28;20032;-47
2024/01/20 08:11:03;;;;;;;7.82;1.27;;;3.40;99.90;;;;;;5030618;28;20024;-49
2024/01/20 08:13:28;;;;;;;3.00;1.10;;;3.50;99.90;;;;;;5036934;28;20351;-46
2024/01/20 08:15:54;;;;;;;3.45;0.85;;;3.70;99.90;;;;;;5036146;28;20033;-49
2024/01/20 08:18:19;;;;;;;5.15;2.03;;;3.80;99.90;;;;;;5047400;28;20040;-46
2024/01/20 08:20:45;;;;;;;1.25;0.90;;;3.90;99.90;;;;;;5048659;28;20021;-55
2024/01/20 08:23:11;;;;;;;2.10;0.85;;;4.00;99.90;;;;;;5048485;28;20021;-48
2024/01/20 08:25:36;;;;;;;7.88;1.25;;;4.10;99.90;;;;;;5048706;28;20029;-50
2024/01/20 08:28:02;;;;;;;4.82;1.30;;;4.20;99.90;;;;;;5048319;28;20017;-51
2024/01/20 08:30:28;;;;;;;2.15;0.90;;;4.20;99.90;;;;;;5048156;28;20242;-50
2024/01/20 08:32:54;;;;;;;4.55;1.10;;;4.30;99.90;;;;;;5050248;28;20463;-48
2024/01/20 08:35:20;;;;;;;2.58;0.73;;;4.40;99.90;;;;;;5050064;28;20017;-49
2024/01/20 08:37:45;;;;;;;2.85;0.82;;;4.40;99.90;;;;;;5048754;28;20033;-52
2024/01/20 08:40:11;;;;;;;0.73;0.60;;;4.60;99.90;;;;;;5050009;28;20365;-49
2024/01/20 08:42:37;;;;;;;6.60;1.00;;;4.80;99.90;;;;;;5050402;28;20063;-51
2024/01/20 08:45:03;;;;;;;5.78;0.95;;;5.20;99.90;;;;;;5050466;28;20383;-52
2024/01/20 08:47:28;;;;;;;3.78;1.27;;;5.70;99.90;;;;;;5050206;28;20021;-51
2024/01/20 08:49:54;;;;;;;2.05;0.90;;;6.30;99.90;;;;;;5050181;28;20071;-54
2024/01/20 08:52:20;;;;;;;2.42;1.00;;;6.80;99.90;;;;;;5049865;28;20013;-54
2024/01/20 08:54:46;;;;;;;1.23;0.75;;;7.20;99.90;;;;;;5050263;28;20059;-55
2024/01/20 08:57:12;;;;;;;2.90;0.75;;;7.30;99.90;;;;;;5049905;28;20021;-53
2024/01/20 08:59:38;;;;;;;5.95;1.15;;;7.10;99.90;;;;;;5050062;28;20033;-52
2024/01/20 09:02:05;;;;;;;6.25;1.13;;;6.70;99.90;;;;;;5049802;28;20132;-49
2024/01/20 09:04:30;;;;;;;3.47;0.82;;;6.40;99.90;;;;;;5050023;28;20029;-47
2024/01/20 09:06:56;;;;;;;1.63;0.63;;;6.40;99.90;;;;;;5049811;28;20025;-49
2024/01/20 09:09:22;;;;;;;7.80;1.05;;;6.80;99.90;;;;;;5049975;28;20025;-46
2024/01/20 09:11:47;;;;;;;11.13;1.23;;;7.30;99.90;;;;;;5050093;28;20483;-49
2024/01/20 09:14:14;;;;;;;3.05;0.73;;;7.60;99.90;;;;;;5049919;28;20029;-49
2024/01/20 09:16:40;;;;;;;3.55;1.20;;;7.60;99.90;;;;;;5049728;28;20071;-49
2024/01/20 09:19:05;;;;;;;4.35;1.15;;;7.40;99.90;;;;;;5049627;28;20049;-48
2024/01/20 09:21:31;;;;;;;2.50;0.90;;;7.40;99.90;;;;;;5049530;28;20020;-52
2024/01/20 09:23:57;;;;;;;4.90;1.40;;;7.20;99.90;;;;;;5049614;28;20035;-49
2024/01/20 09:26:23;;;;;;;2.42;1.05;;;7.00;99.90;;;;;;5049523;28;20108;-52
2024/01/20 09:28:48;;;;;;;6.28;1.20;;;6.90;99.90;;;;;;5048212;28;20119;-54
2024/01/20 09:31:14;;;;;;;4.70;1.05;;;6.80;99.90;;;;;;5049724;28;20456;-53
2024/01/20 09:33:42;;;;;;;2.55;1.23;;;6.70;99.90;;;;;;5048192;28;20017;-48
2024/01/20 09:36:07;;;;;;;2.38;0.98;;;6.60;99.90;;;;;;5049633;28;20028;-49
2024/01/20 09:38:33;;;;;;;3.30;1.10;;;6.70;99.90;;;;;;5049264;28;20151;-47
2024/01/20 09:40:59;;;;;;;3.78;0.93;;;6.70;99.90;;;;;;5049543;28;20045;-48
2024/01/20 09:43:25;;;;;;;3.55;0.70;;;6.80;99.90;;;;;;5052848;28;20072;-47
2024/01/20 09:45:52;;;;;;;2.28;0.82;;;6.90;99.90;;;;;;5053692;28;20099;-47
2024/01/20 09:48:18;;;;;;;4.32;1.23;;;7.00;99.90;;;;;;5053586;28;20395;-50
2024/01/20 09:50:45;;;;;;;1.17;0.60;;;7.10;99.90;;;;;;5053295;28;20191;-52
2024/01/20 09:53:15;;;;;;;5.47;1.13;;;7.30;99.90;;;;;;5053650;28;20468;-47
2024/01/20 09:55:42;;;;;;;3.83;0.50;;;7.40;99.90;;;;;;5053336;28;20039;-47
2024/01/20 09:58:13;;;;;;;3.13;0.85;;;7.50;99.90;;;;;;5053506;28;20047;-54
2024/01/20 10:00:40;;;;;;;1.00;0.50;;;7.60;99.90;;;;;;5053269;28;20518;-47
2024/01/20 10:03:09;;;;;;;2.58;0.75;;;7.70;99.90;;;;;;5053287;28;20204;-50
2024/01/20 10:05:35;;;;;;;8.00;0.98;;;8.20;99.90;;;;;;5053138;28;20029;-48
2024/01/20 10:08:02;;;;;;;3.10;0.52;;;8.80;99.90;;;;;;5053456;28;20115;-49
2024/01/20 10:10:40;;;;;;;1.52;0.70;;;9.30;99.90;;;;;;4819129;22;22629;-49
2024/01/20 10:13:05;;;;;;;1.50;0.85;;;9.90;98.80;;;;;;4970889;22;20475;-54
2024/01/20 10:15:32;;;;;;;0.90;0.63;;;10.30;98.40;;;;;;5032994;28;20045;-52
2024/01/20 10:17:59;;;;;;;1.38;0.50;;;10.60;97.60;;;;;;5033150;28;20116;-51
2024/01/20 10:20:31;;;;;;;0.75;0.50;;;10.00;96.70;;;;;;5033305;28;20090;-49
2024/01/20 10:23:00;;;;;;;7.43;0.68;;;9.20;97.20;;;;;;5033159;28;20065;-47
2024/01/20 10:25:26;;;;;;;4.53;0.80;;;8.70;97.90;;;;;;5033671;28;20055;-47
2024/01/20 10:27:51;;;;;;;3.70;0.68;;;8.80;98.40;;;;;;5033450;28;20069;-50
2024/01/20 10:30:20;;;;;;;4.25;0.88;;;9.00;98.40;;;;;;5033164;28;20104;-54
2024/01/20 10:32:46;;;;;;;4.35;0.70;;;10.10;97.70;;;;;;5032047;28;20084;-47
2024/01/20 10:35:12;;;;;;;2.42;0.52;;;10.70;96.10;;;;;;5033091;28;20533;-48
2024/01/20 10:37:40;;;;;;;1.05;0.45;;;10.60;94.80;;;;;;5033230;28;20037;-50
2024/01/20 10:40:11;;;;;;;4.45;0.68;;;9.90;95.20;;;;;;5032923;28;20034;-51
2024/01/20 10:42:44;;;;;;;4.95;0.88;;;9.20;95.60;;;;;;5033098;28;20025;-48
2024/01/20 10:45:11;;;;;;;5.15;0.70;;;9.10;95.90;;;;;;5031506;28;20143;-46
2024/01/20 10:47:40;;;;;;;1.30;0.57;;;9.00;96.30;;;;;;5033111;28;20040;-53
2024/01/20 10:50:08;;;;;;;4.05;1.02;;;8.90;96.50;;;;;;5032975;28;20108;-46
2024/01/20 10:52:37;;;;;;;3.30;0.82;;;8.90;96.50;;;;;;5032922;28;20455;-52
2024/01/20 10:55:03;;;;;;;;;;;8.60;96.10;;;;;;5032414;28;20032;-56
2024/01/20 10:57:30;;;;;;;5.03;0.88;;;8.60;96.30;;;;;;5032455;28;19909;-47
2024/01/20 11:00:00;;;;;;;1.25;0.65;;;8.60;96.90;;;;;;5032858;28;20029;-47
2024/01/20 11:02:27;;;;;;;0.75;0.47;;;8.70;96.20;;;;;;5032652;28;20029;-51
2024/01/20 11:04:53;;;;;;;1.67;0.45;;;8.60;96.00;;;;;;5032913;28;20026;-53
2024/01/20 11:07:28;;;;;;;5.90;0.65;;;8.40;96.60;;;;;;5032439;28;20030;-50
2024/01/20 11:09:58;;;;;;;3.13;0.82;;;8.00;96.70;;;;;;5032686;28;20062;-56
2024/01/20 11:12:25;;;;;;;5.32;0.80;;;7.90;97.20;;;;;;5032088;28;20045;-51
2024/01/20 11:14:52;;;;;;;3.40;0.88;;;7.80;97.40;;;;;;5032528;28;20037;-56
2024/01/20 11:17:18;;;;;;;4.70;0.80;;;8.20;97.30;;;;;;5032114;28;20391;-51
2024/01/20 11:19:44;;;;;;;3.28;0.68;;;8.70;96.80;;;;;;5032279;28;20036;-53
2024/01/20 11:22:38;;;;;;;1.27;0.50;;;9.40;95.50;;;;;;5032160;28;20024;-54
2024/01/20 11:25:07;;;;;;;0.93;0.52;;;9.70;94.60;;;;;;5018982;28;20025;-51
2024/01/20 11:27:54;;;;;;;2.17;0.65;;;9.40;94.50;;;;;;5027980;28;20021;-55
2024/01/20 11:30:29;;;;;;;3.22;0.57;;;8.80;94.80;;;;;;5019881;28;20495;-52
2024/01/20 11:32:56;;;;;;;2.25;0.65;;;8.40;95.10;;;;;;5021134;28;20048;-50
2024/01/20 11:35:22;;;;;;;0.80;0.50;;;8.30;95.90;;;;;;5019757;28;20025;-50
2024/01/20 11:37:49;;;;;;;4.40;0.70;;;8.10;96.00;;;;;;5025057;28;20088;-50
2024/01/20 11:40:15;;;;;;;1.63;0.60;;;8.00;96.50;;;;;;5022204;28;20026;-50
2024/01/20 11:42:41;;;;;;;1.40;0.60;;;7.80;96.60;;;;;;5026220;28;20243;-52
2024/01/20 11:45:07;;;;;;;0.82;0.80;;;7.60;96.80;;;;;;5027885;28;20022;-55
2024/01/20 11:47:33;;;;;;;1.48;0.60;;;7.40;96.90;;;;;;5024298;28;20026;-50
2024/01/20 11:49:59;;;;;;;6.70;0.70;;;7.30;97.40;;;;;;5021921;28;20030;-48
2024/01/20 11:52:28;;;;;;;5.72;0.88;;;7.30;97.60;;;;;;5017511;28;20026;-48
2024/01/20 11:54:54;;;;;;;3.17;0.80;;;7.40;97.30;;;;;;5031352;28;20490;-53
2024/01/20 11:57:26;;;;;;;1.02;0.63;;;7.50;97.40;;;;;;5031354;28;20381;-54
2024/01/20 11:59:53;;;;;;;1.67;0.60;;;7.80;97.30;;;;;;5031122;28;20391;-48
2024/01/20 12:02:20;;;;;;;1.65;0.57;;;8.40;96.80;;;;;;5031094;28;20536;-47
2024/01/20 12:04:48;;;;;;;2.60;0.50;;;8.60;96.10;;;;;;5030903;28;20049;-56
2024/01/20 12:07:13;;;;;;;3.90;0.90;;;8.80;95.30;;;;;;5031126;28;20269;-50
2024/01/20 12:09:45;;;;;;;2.45;0.80;;;8.90;95.20;;;;;;5028283;28;20117;-50
2024/01/20 12:12:12;;;;;;;1.35;0.60;;;9.10;95.10;;;;;;5031137;28;20468;-50
2024/01/20 12:14:41;;;;;;;2.47;0.80;;;9.70;94.60;;;;;;5031053;28;20460;-53
2024/01/20 12:17:07;;;;;;;2.03;0.70;;;9.80;93.80;;;;;;5030622;28;20472;-52
2024/01/20 12:19:35;;;;;;;4.80;0.82;;;9.50;94.10;;;;;;5025117;28;20038;-46
2024/01/20 12:22:02;;;;;;;3.28;0.88;;;8.90;95.80;;;;;;5029836;28;20391;-48
2024/01/20 12:24:30;;;;;;;3.60;1.27;;;8.50;97.30;;;;;;5030893;28;20033;-53
2024/01/20 12:26:56;;;;;;;6.75;0.90;;;8.20;98.20;;;;;;5030219;28;20061;-53
2024/01/20 12:29:21;;;;;;;1.80;0.93;;;8.20;98.90;;;;;;5029675;28;20044;-50
2024/01/20 12:31:47;;;;;;;3.70;1.20;;;8.20;99.50;;;;;;5021981;28;20430;-48
2024/01/20 12:34:13;;;;;;;5.03;0.75;;;8.10;99.90;;;;;;5029724;28;20381;-48
2024/01/20 12:36:38;;;;;;;2.47;1.00;;;7.90;99.90;;;;;;5030671;28;20044;-53
2024/01/20 12:39:05;;;;;;;4.90;1.08;;;8.30;99.90;;;;;;5029169;28;20052;-47
2024/01/20 12:41:32;;;;;;;2.50;0.90;;;8.90;99.70;;;;;;5026387;28;20025;-46
2024/01/20 12:43:58;;;;;;;7.00;1.08;;;9.20;98.70;;;;;;5029329;28;20539;-48
2024/01/20 12:46:24;;;;;;;2.95;0.90;;;9.30;98.60;;;;;;5029018;28;20026;-51
2024/01/20 12:48:49;;;;;;;4.18;1.17;;;9.40;98.30;;;;;;5029972;28;20024;-57